sensor_id;sensor_type;location;lat;lon;timestamp;pressure;altitude;pressure_sealevel;temperature;humidity
10167;BME280;62970;53.130;8.244;2023-03-18T05:49:08;100869.44;;;9.20;54.52
10167;BME280;62970;53.130;8.244;2023-03-18T05:51:38;100869.31;;;9.26;54.99
10167;BME280;62970;53.130;8.244;2023-03-18T05:54:07;100868.38;;;9.32;55.21
10167;BME280;62970;53.130;8.244;2023-03-18T05:56:37;100870.00;;;9.37;55.34
10167;BME280;62970;53.130;8.244;2023-03-18T05:59:08;100870.78;;;9.42;55.59
10167;BME280;62970;53.130;8.244;2023-03-18T06:01:38;100870.69;;;9.48;55.32
10167;BME280;62970;53.130;8.244;2023-03-18T06:04:11;100868.00;;;9.53;55.24
10167;BME280;62970;53.130;8.244;2023-03-18T06:06:40;100873.97;;;9.58;55.65
10167;BME280;62970;53.130;8.244;2023-03-18T06:09:11;100882.59;;;9.62;55.41
10167;BME280;62970;53.130;8.244;2023-03-18T06:11:41;100872.13;;;9.65;55.96
10167;BME280;62970;53.130;8.244;2023-03-18T06:14:11;100891.16;;;9.68;55.85
10167;BME280;62970;53.130;8.244;2023-03-18T06:16:41;100885.03;;;9.71;55.98
10167;BME280;62970;53.130;8.244;2023-03-18T06:19:14;100898.00;;;9.74;55.92
10167;BME280;62970;53.130;8.244;2023-03-18T06:21:44;100884.06;;;9.76;55.82
10167;BME280;62970;53.130;8.244;2023-03-18T06:24:13;100890.06;;;9.80;55.81
10167;BME280;62970;53.130;8.244;2023-03-18T06:26:43;100897.81;;;9.83;56.02
10167;BME280;62970;53.130;8.244;2023-03-18T06:29:12;100896.03;;;9.86;56.33
10167;BME280;62970;53.130;8.244;2023-03-18T06:31:43;100902.88;;;9.91;56.37
10167;BME280;62970;53.130;8.244;2023-03-18T06:34:17;100903.72;;;9.93;56.57
10167;BME280;62970;53.130;8.244;2023-03-18T06:36:47;100908.91;;;9.94;56.35
10167;BME280;62970;53.130;8.244;2023-03-18T06:39:17;100908.91;;;9.94;56.57
10167;BME280;62970;53.130;8.244;2023-03-18T06:41:46;100914.97;;;9.95;56.59
10167;BME280;62970;53.130;8.244;2023-03-18T06:44:17;100914.97;;;9.95;57.03
10167;BME280;62970;53.130;8.244;2023-03-18T06:46:46;100914.09;;;9.94;57.41
10167;BME280;62970;53.130;8.244;2023-03-18T06:49:18;100921.06;;;9.94;56.96
10167;BME280;62970;53.130;8.244;2023-03-18T06:51:49;100917.63;;;9.92;57.45
10167;BME280;62970;53.130;8.244;2023-03-18T06:54:19;100921.09;;;9.92;57.67
10167;BME280;62970;53.130;8.244;2023-03-18T06:56:49;100935.00;;;9.91;57.32
10167;BME280;62970;53.130;8.244;2023-03-18T06:59:18;100938.44;;;9.93;57.55
10167;BME280;62970;53.130;8.244;2023-03-18T07:01:48;100940.19;;;9.93;57.87
10167;BME280;62970;53.130;8.244;2023-03-18T07:04:21;100928.06;;;9.92;58.12
10167;BME280;62970;53.130;8.244;2023-03-18T07:06:52;100928.00;;;9.95;58.25
10167;BME280;62970;53.130;8.244;2023-03-18T07:09:23;100929.69;;;9.97;58.34
10167;BME280;62970;53.130;8.244;2023-03-18T07:11:52;100935.72;;;10.01;58.34
10167;BME280;62970;53.130;8.244;2023-03-18T07:14:22;100940.03;;;10.03;58.30
10167;BME280;62970;53.130;8.244;2023-03-18T07:16:51;100939.97;;;10.06;58.62
10167;BME280;62970;53.130;8.244;2023-03-18T07:19:24;100950.34;;;10.08;58.41
10167;BME280;62970;53.130;8.244;2023-03-18T07:21:55;100950.31;;;10.09;58.36
10167;BME280;62970;53.130;8.244;2023-03-18T07:24:25;100943.38;;;10.10;58.30
10167;BME280;62970;53.130;8.244;2023-03-18T07:26:56;100957.22;;;10.12;58.28
10167;BME280;62970;53.130;8.244;2023-03-18T07:29:26;100949.38;;;10.13;58.47
10167;BME280;62970;53.130;8.244;2023-03-18T07:31:55;100961.50;;;10.16;58.44
10167;BME280;62970;53.130;8.244;2023-03-18T07:34:27;100961.44;;;10.21;58.96
10167;BME280;62970;53.130;8.244;2023-03-18T07:36:56;100965.72;;;10.25;58.71
10167;BME280;62970;53.130;8.244;2023-03-18T07:39:26;100974.28;;;10.30;58.99
10167;BME280;62970;53.130;8.244;2023-03-18T07:41:55;100971.56;;;10.36;59.12
10167;BME280;62970;53.130;8.244;2023-03-18T07:44:24;100975.78;;;10.43;58.83
10167;BME280;62970;53.130;8.244;2023-03-18T07:46:54;100986.91;;;10.51;59.25
10167;BME280;62970;53.130;8.244;2023-03-18T07:49:26;100984.16;;;10.59;59.30
10167;BME280;62970;53.130;8.244;2023-03-18T07:51:55;100991.81;;;10.66;58.95
10167;BME280;62970;53.130;8.244;2023-03-18T07:54:24;100993.41;;;10.73;58.76
10167;BME280;62970;53.130;8.244;2023-03-18T07:56:54;100993.25;;;10.81;59.05
10167;BME280;62970;53.130;8.244;2023-03-18T07:59:23;100999.16;;;10.89;58.98
10167;BME280;62970;53.130;8.244;2023-03-18T08:01:52;101001.63;;;10.95;58.61
10167;BME280;62970;53.130;8.244;2023-03-18T08:04:22;100999.75;;;11.02;58.89
10167;BME280;62970;53.130;8.244;2023-03-18T08:06:54;100999.63;;;11.08;58.78
10167;BME280;62970;53.130;8.244;2023-03-18T08:09:23;101002.09;;;11.14;58.53
10167;BME280;62970;53.130;8.244;2023-03-18T08:11:53;101010.72;;;11.18;58.64
10167;BME280;62970;53.130;8.244;2023-03-18T08:14:23;101021.94;;;11.21;58.38
10167;BME280;62970;53.130;8.244;2023-03-18T08:16:52;101016.69;;;11.23;58.72
10167;BME280;62970;53.130;8.244;2023-03-18T08:19:21;101019.28;;;11.23;58.51
10167;BME280;62970;53.130;8.244;2023-03-18T08:21:54;101018.44;;;11.22;58.93
10167;BME280;62970;53.130;8.244;2023-03-18T08:24:24;101025.34;;;11.25;58.74
10167;BME280;62970;53.130;8.244;2023-03-18T08:26:54;101025.28;;;11.28;58.70
10167;BME280;62970;53.130;8.244;2023-03-18T08:29:23;101019.91;;;11.34;58.87
10167;BME280;62970;53.130;8.244;2023-03-18T08:31:53;101026.72;;;11.41;58.57
10167;BME280;62970;53.130;8.244;2023-03-18T08:34:22;101031.78;;;11.48;58.57
10167;BME280;62970;53.130;8.244;2023-03-18T08:36:54;101044.66;;;11.56;58.58
10167;BME280;62970;53.130;8.244;2023-03-18T08:39:25;101038.38;;;11.65;58.76
10167;BME280;62970;53.130;8.244;2023-03-18T08:41:54;101038.19;;;11.72;58.61
10167;BME280;62970;53.130;8.244;2023-03-18T08:44:27;101041.44;;;11.82;58.70
10167;BME280;62970;53.130;8.244;2023-03-18T08:46:56;101047.22;;;11.95;58.21
10167;BME280;62970;53.130;8.244;2023-03-18T08:49:26;101050.47;;;12.04;58.69
10167;BME280;62970;53.130;8.244;2023-03-18T08:51:58;101052.84;;;12.13;58.43
10167;BME280;62970;53.130;8.244;2023-03-18T08:54:28;101035.03;;;12.28;58.70
10167;BME280;62970;53.130;8.244;2023-03-18T08:56:57;101043.31;;;12.43;58.61
10167;BME280;62970;53.130;8.244;2023-03-18T08:59:27;101040.31;;;12.60;58.51
10167;BME280;62970;53.130;8.244;2023-03-18T09:01:56;101033.78;;;12.75;58.27
10167;BME280;62970;53.130;8.244;2023-03-18T09:04:26;101041.25;;;12.89;58.08
10167;BME280;62970;53.130;8.244;2023-03-18T09:06:58;101047.06;;;12.98;57.46
10167;BME280;62970;53.130;8.244;2023-03-18T09:09:28;101037.28;;;13.05;57.65
10167;BME280;62970;53.130;8.244;2023-03-18T09:11:57;101030.19;;;13.08;57.17
10167;BME280;62970;53.130;8.244;2023-03-18T09:14:29;101025.78;;;13.11;57.34
10167;BME280;62970;53.130;8.244;2023-03-18T09:16:59;101027.34;;;13.16;57.19
10167;BME280;62970;53.130;8.244;2023-03-18T09:19:29;101029.72;;;13.24;56.82
10167;BME280;62970;53.130;8.244;2023-03-18T09:22:02;101040.06;;;13.28;57.19
10167;BME280;62970;53.130;8.244;2023-03-18T09:24:31;101040.84;;;13.32;56.79
10167;BME280;62970;53.130;8.244;2023-03-18T09:27:00;101042.66;;;13.30;56.42
10167;BME280;62970;53.130;8.244;2023-03-18T09:29:30;101051.44;;;13.27;56.69
10167;BME280;62970;53.130;8.244;2023-03-18T09:31:59;101053.31;;;13.24;56.40
10167;BME280;62970;53.130;8.244;2023-03-18T09:34:29;101060.44;;;13.19;56.61
10167;BME280;62970;53.130;8.244;2023-03-18T09:37:01;101065.75;;;13.16;56.66
10167;BME280;62970;53.130;8.244;2023-03-18T09:39:30;101069.25;;;13.16;56.69
10167;BME280;62970;53.130;8.244;2023-03-18T09:42:18;101056.88;;;13.21;57.18
10167;BME280;62970;53.130;8.244;2023-03-18T09:44:55;101060.06;;;13.31;57.30
10167;BME280;62970;53.130;8.244;2023-03-18T09:47:59;101066.69;;;13.43;56.91
10167;BME280;62970;53.130;8.244;2023-03-18T09:50:40;101068.97;;;13.53;57.13
10167;BME280;62970;53.130;8.244;2023-03-18T09:53:22;101069.59;;;13.61;57.06
10167;BME280;62970;53.130;8.244;2023-03-18T09:55:55;101075.50;;;13.69;56.83
10167;BME280;62970;53.130;8.244;2023-03-18T09:58:30;101076.16;;;13.76;56.41
10167;BME280;62970;53.130;8.244;2023-03-18T10:01:04;101076.00;;;13.81;56.51
10167;BME280;62970;53.130;8.244;2023-03-18T10:03:38;101079.22;;;13.89;56.40
10167;BME280;62970;53.130;8.244;2023-03-18T10:06:15;101078.94;;;13.98;56.91
10167;BME280;62970;53.130;8.244;2023-03-18T10:08:56;101070.66;;;14.10;56.72
10167;BME280;62970;53.130;8.244;2023-03-18T10:11:31;101079.81;;;14.23;56.52
10167;BME280;62970;53.130;8.244;2023-03-18T10:14:19;101069.78;;;14.36;56.15
10167;BME280;62970;53.130;8.244;2023-03-18T10:17:05;101081.59;;;14.48;56.31
10167;BME280;62970;53.130;8.244;2023-03-18T10:19:37;101076.03;;;14.57;55.73
10167;BME280;62970;53.130;8.244;2023-03-18T10:22:40;101084.47;;;14.66;55.70
10167;BME280;62970;53.130;8.244;2023-03-18T10:25:24;101086.94;;;14.71;55.66
10167;BME280;62970;53.130;8.244;2023-03-18T10:28:13;101091.16;;;14.75;55.49
10167;BME280;62970;53.130;8.244;2023-03-18T10:30:56;101096.31;;;14.78;55.05
10167;BME280;62970;53.130;8.244;2023-03-18T10:33:39;101101.50;;;14.80;55.05
10167;BME280;62970;53.130;8.244;2023-03-18T10:36:17;101100.53;;;14.82;55.21
10167;BME280;62970;53.130;8.244;2023-03-18T10:38:49;101111.81;;;14.84;54.96
10167;BME280;62970;53.130;8.244;2023-03-18T10:41:27;101107.31;;;14.88;54.89
10167;BME280;62970;53.130;8.244;2023-03-18T10:44:00;101105.38;;;14.93;55.07
10167;BME280;62970;53.130;8.244;2023-03-18T10:46:32;101110.34;;;15.00;54.50
10167;BME280;62970;53.130;8.244;2023-03-18T10:49:05;101107.50;;;15.07;54.70
10167;BME280;62970;53.130;8.244;2023-03-18T10:51:45;101106.47;;;15.11;54.08
10167;BME280;62970;53.130;8.244;2023-03-18T10:54:23;101115.91;;;15.16;54.29
10167;BME280;62970;53.130;8.244;2023-03-18T10:56:59;101106.19;;;15.18;54.47
10167;BME280;62970;53.130;8.244;2023-03-18T10:59:30;101112.22;;;15.22;54.07
10167;BME280;62970;53.130;8.244;2023-03-18T11:02:04;101107.72;;;15.25;54.10
10167;BME280;62970;53.130;8.244;2023-03-18T11:04:47;101104.06;;;15.29;53.92
10167;BME280;62970;53.130;8.244;2023-03-18T11:07:22;101104.63;;;15.38;54.43
10167;BME280;62970;53.130;8.244;2023-03-18T11:09:53;101110.50;;;15.44;54.29
10167;BME280;62970;53.130;8.244;2023-03-18T11:12:27;101109.28;;;15.53;54.37
10167;BME280;62970;53.130;8.244;2023-03-18T11:14:57;101109.88;;;15.61;54.02
10167;BME280;62970;53.130;8.244;2023-03-18T11:17:30;101109.56;;;15.69;54.18
10167;BME280;62970;53.130;8.244;2023-03-18T11:20:04;101114.53;;;15.76;54.50
10167;BME280;62970;53.130;8.244;2023-03-18T11:22:37;101111.59;;;15.84;53.88
10167;BME280;62970;53.130;8.244;2023-03-18T11:25:15;101108.59;;;15.93;54.24
10167;BME280;62970;53.130;8.244;2023-03-18T11:27:49;101112.56;;;16.03;53.96
10167;BME280;62970;53.130;8.244;2023-03-18T11:30:21;101115.72;;;16.11;53.45
10167;BME280;62970;53.130;8.244;2023-03-18T11:32:54;101111.94;;;16.18;53.36
10167;BME280;62970;53.130;8.244;2023-03-18T11:35:31;101120.47;;;16.23;52.91
10167;BME280;62970;53.130;8.244;2023-03-18T11:38:02;101120.34;;;16.26;52.62
10167;BME280;62970;53.130;8.244;2023-03-18T11:40:32;101114.97;;;16.30;52.61
10167;BME280;62970;53.130;8.244;2023-03-18T11:43:16;101110.63;;;16.28;52.62
10167;BME280;62970;53.130;8.244;2023-03-18T11:45:50;101120.16;;;16.31;52.28
10167;BME280;62970;53.130;8.244;2023-03-18T11:48:30;101126.16;;;16.35;52.35
10167;BME280;62970;53.130;8.244;2023-03-18T11:51:40;101117.22;;;16.39;52.27
10167;BME280;62970;53.130;8.244;2023-03-18T11:54:41;101112.53;;;16.45;52.61
10167;BME280;62970;53.130;8.244;2023-03-18T11:57:18;101120.13;;;16.53;52.20
10167;BME280;62970;53.130;8.244;2023-03-18T12:00:02;101112.91;;;16.58;52.00
10167;BME280;62970;53.130;8.244;2023-03-18T12:02:56;101124.09;;;16.63;52.41
10167;BME280;62970;53.130;8.244;2023-03-18T12:05:59;101119.41;;;16.70;52.23
10167;BME280;62970;53.130;8.244;2023-03-18T12:08:44;101121.00;;;16.74;51.91
10167;BME280;62970;53.130;8.244;2023-03-18T12:11:22;101118.94;;;16.80;51.22
10167;BME280;62970;53.130;8.244;2023-03-18T12:14:01;101127.56;;;16.84;51.57
10167;BME280;62970;53.130;8.244;2023-03-18T12:16:55;101128.28;;;16.87;51.42
10167;BME280;62970;53.130;8.244;2023-03-18T12:20:02;101116.34;;;16.99;51.71
10167;BME280;62970;53.130;8.244;2023-03-18T12:23:03;101114.34;;;17.04;50.74
10167;BME280;62970;53.130;8.244;2023-03-18T12:26:01;101121.53;;;17.01;50.82
10167;BME280;62970;53.130;8.244;2023-03-18T12:28:44;101114.50;;;17.01;50.47
10167;BME280;62970;53.130;8.244;2023-03-18T12:31:33;101107.59;;;16.99;50.38
10167;BME280;62970;53.130;8.244;2023-03-18T12:34:31;101107.88;;;16.92;50.29
10167;BME280;62970;53.130;8.244;2023-03-18T12:37:19;101112.63;;;16.84;50.23
10167;BME280;62970;53.130;8.244;2023-03-18T12:40:16;101118.44;;;16.72;50.50
10167;BME280;62970;53.130;8.244;2023-03-18T12:43:11;101119.75;;;16.62;50.14
10167;BME280;62970;53.130;8.244;2023-03-18T12:45:49;101112.28;;;16.51;49.91
10167;BME280;62970;53.130;8.244;2023-03-18T12:48:24;101104.78;;;16.42;50.21
10167;BME280;62970;53.130;8.244;2023-03-18T12:51:07;101116.34;;;16.38;50.60
10167;BME280;62970;53.130;8.244;2023-03-18T12:53:43;101104.13;;;16.37;50.73
10167;BME280;62970;53.130;8.244;2023-03-18T12:56:18;101105.81;;;16.38;50.63
10167;BME280;62970;53.130;8.244;2023-03-18T12:58:52;101106.69;;;16.39;50.12
10167;BME280;62970;53.130;8.244;2023-03-18T13:01:30;101111.88;;;16.40;50.48
10167;BME280;62970;53.130;8.244;2023-03-18T13:04:05;101101.34;;;16.40;50.13
10167;BME280;62970;53.130;8.244;2023-03-18T13:06:44;101096.16;;;16.39;50.29
10167;BME280;62970;53.130;8.244;2023-03-18T13:09:24;101101.56;;;16.36;49.99
10167;BME280;62970;53.130;8.244;2023-03-18T13:12:04;101103.53;;;16.31;49.89
10167;BME280;62970;53.130;8.244;2023-03-18T13:14:53;101101.09;;;16.26;49.52
10167;BME280;62970;53.130;8.244;2023-03-18T13:17:31;101098.38;;;16.27;50.04
10167;BME280;62970;53.130;8.244;2023-03-18T13:20:10;101106.28;;;16.27;49.92
10167;BME280;62970;53.130;8.244;2023-03-18T13:26:20;101094.19;;;16.23;50.31
10167;BME280;62970;53.130;8.244;2023-03-18T13:29:01;101089.78;;;16.24;50.14
10167;BME280;62970;53.130;8.244;2023-03-18T13:31:47;101075.63;;;16.26;50.11
10167;BME280;62970;53.130;8.244;2023-03-18T13:34:50;101089.25;;;16.36;49.76
10167;BME280;62970;53.130;8.244;2023-03-18T13:38:05;101089.41;;;16.53;50.08
10167;BME280;62970;53.130;8.244;2023-03-18T13:41:06;101087.88;;;16.68;49.45
10167;BME280;62970;53.130;8.244;2023-03-18T13:43:50;101082.28;;;16.76;49.17
10167;BME280;62970;53.130;8.244;2023-03-18T13:46:23;101073.31;;;16.80;48.97
10167;BME280;62970;53.130;8.244;2023-03-18T13:48:55;101075.97;;;16.80;48.52
10167;BME280;62970;53.130;8.244;2023-03-18T13:51:50;101078.78;;;16.75;48.49
10167;BME280;62970;53.130;8.244;2023-03-18T13:54:20;101077.88;;;16.76;48.68
10167;BME280;62970;53.130;8.244;2023-03-18T13:56:52;101075.09;;;16.79;48.69
10167;BME280;62970;53.130;8.244;2023-03-18T13:59:49;101078.38;;;16.84;49.11
10167;BME280;62970;53.130;8.244;2023-03-18T14:02:33;101078.19;;;16.89;48.64
10167;BME280;62970;53.130;8.244;2023-03-18T14:05:36;101075.47;;;16.90;48.83
10167;BME280;62970;53.130;8.244;2023-03-18T14:08:49;101071.91;;;16.91;48.32
